sensor_id;sensor_type;location;lat;lon;timestamp;P1;durP1;ratioP1;P2;durP2;ratioP2
8993;SDS011;4532;50.886;4.700;2023-04-21T00:02:24;11.67;;;10.43;;
8993;SDS011;4532;50.886;4.700;2023-04-21T00:04:53;10.27;;;9.13;;
8993;SDS011;4532;50.886;4.700;2023-04-21T00:07:24;11.13;;;9.80;;
8993;SDS011;4532;50.886;4.700;2023-04-21T00:09:56;10.43;;;9.40;;
8993;SDS011;4532;50.886;4.700;2023-04-21T00:12:23;12.00;;;9.60;;
8993;SDS011;4532;50.886;4.700;2023-04-21T00:14:51;11.07;;;9.50;;
8993;SDS011;4532;50.886;4.700;2023-04-21T00:17:18;13.20;;;10.67;;
8993;SDS011;4532;50.886;4.700;2023-04-21T00:19:49;11.23;;;9.83;;
8993;SDS011;4532;50.886;4.700;2023-04-21T00:22:20;12.07;;;10.00;;
8993;SDS011;4532;50.886;4.700;2023-04-21T00:24:47;11.43;;;10.23;;
8993;SDS011;4532;50.886;4.700;2023-04-21T00:27:22;11.07;;;9.97;;
8993;SDS011;4532;50.886;4.700;2023-04-21T00:29:49;12.20;;;10.90;;
8993;SDS011;4532;50.886;4.700;2023-04-21T00:32:16;11.77;;;10.23;;
8993;SDS011;4532;50.886;4.700;2023-04-21T00:34:45;13.47;;;11.17;;
8993;SDS011;4532;50.886;4.700;2023-04-21T00:37:15;13.83;;;12.37;;
8993;SDS011;4532;50.886;4.700;2023-04-21T00:39:46;13.23;;;11.57;;
8993;SDS011;4532;50.886;4.700;2023-04-21T00:42:17;13.37;;;11.97;;
8993;SDS011;4532;50.886;4.700;2023-04-21T00:44:46;15.33;;;13.73;;
8993;SDS011;4532;50.886;4.700;2023-04-21T00:47:15;14.10;;;12.37;;
8993;SDS011;4532;50.886;4.700;2023-04-21T00:49:45;13.13;;;11.80;;
8993;SDS011;4532;50.886;4.700;2023-04-21T00:52:13;14.57;;;12.93;;
8993;SDS011;4532;50.886;4.700;2023-04-21T00:54:48;15.43;;;13.83;;
8993;SDS011;4532;50.886;4.700;2023-04-21T00:57:18;16.60;;;14.17;;
8993;SDS011;4532;50.886;4.700;2023-04-21T00:59:49;15.30;;;13.83;;
8993;SDS011;4532;50.886;4.700;2023-04-21T01:02:17;15.57;;;13.97;;
8993;SDS011;4532;50.886;4.700;2023-04-21T01:04:45;15.83;;;14.23;;
8993;SDS011;4532;50.886;4.700;2023-04-21T01:07:12;17.50;;;15.70;;
8993;SDS011;4532;50.886;4.700;2023-04-21T01:09:39;18.10;;;16.20;;
8993;SDS011;4532;50.886;4.700;2023-04-21T01:12:07;17.77;;;15.97;;
8993;SDS011;4532;50.886;4.700;2023-04-21T01:14:38;16.77;;;15.07;;
8993;SDS011;4532;50.886;4.700;2023-04-21T01:17:08;18.03;;;16.23;;
8993;SDS011;4532;50.886;4.700;2023-04-21T01:19:40;17.53;;;15.77;;
8993;SDS011;4532;50.886;4.700;2023-04-21T01:22:08;16.90;;;15.20;;
8993;SDS011;4532;50.886;4.700;2023-04-21T01:24:40;18.10;;;16.20;;
8993;SDS011;4532;50.886;4.700;2023-04-21T01:27:21;18.87;;;17.07;;
8993;SDS011;4532;50.886;4.700;2023-04-21T01:29:54;18.17;;;16.37;;
8993;SDS011;4532;50.886;4.700;2023-04-21T01:32:26;17.80;;;15.90;;
8993;SDS011;4532;50.886;4.700;2023-04-21T01:34:55;18.37;;;16.47;;
8993;SDS011;4532;50.886;4.700;2023-04-21T01:37:27;20.30;;;18.13;;
8993;SDS011;4532;50.886;4.700;2023-04-21T01:39:59;18.20;;;16.33;;
8993;SDS011;4532;50.886;4.700;2023-04-21T01:42:33;20.60;;;18.40;;
8993;SDS011;4532;50.886;4.700;2023-04-21T01:45:04;18.33;;;16.43;;
8993;SDS011;4532;50.886;4.700;2023-04-21T01:47:32;19.00;;;17.00;;
8993;SDS011;4532;50.886;4.700;2023-04-21T01:50:04;20.17;;;18.07;;
8993;SDS011;4532;50.886;4.700;2023-04-21T01:52:31;18.93;;;17.03;;
8993;SDS011;4532;50.886;4.700;2023-04-21T01:54:58;19.90;;;17.80;;
8993;SDS011;4532;50.886;4.700;2023-04-21T01:57:32;18.97;;;17.07;;
8993;SDS011;4532;50.886;4.700;2023-04-21T02:00:02;20.70;;;18.60;;
8993;SDS011;4532;50.886;4.700;2023-04-21T02:02:33;20.83;;;18.53;;
8993;SDS011;4532;50.886;4.700;2023-04-21T02:05:02;21.50;;;19.30;;
8993;SDS011;4532;50.886;4.700;2023-04-21T02:07:30;20.30;;;18.17;;
8993;SDS011;4532;50.886;4.700;2023-04-21T02:09:57;20.47;;;18.33;;
8993;SDS011;4532;50.886;4.700;2023-04-21T02:12:24;20.20;;;18.10;;
8993;SDS011;4532;50.886;4.700;2023-04-21T02:14:54;20.10;;;18.00;;
8993;SDS011;4532;50.886;4.700;2023-04-21T02:17:21;22.30;;;18.97;;
8993;SDS011;4532;50.886;4.700;2023-04-21T02:19:48;21.63;;;19.20;;
8993;SDS011;4532;50.886;4.700;2023-04-21T02:22:15;21.10;;;18.90;;
8993;SDS011;4532;50.886;4.700;2023-04-21T02:24:43;20.87;;;18.67;;
8993;SDS011;4532;50.886;4.700;2023-04-21T02:27:16;20.60;;;18.47;;
8993;SDS011;4532;50.886;4.700;2023-04-21T02:29:45;21.30;;;19.00;;
8993;SDS011;4532;50.886;4.700;2023-04-21T02:32:14;22.23;;;20.03;;
8993;SDS011;4532;50.886;4.700;2023-04-21T02:34:51;22.07;;;19.73;;
8993;SDS011;4532;50.886;4.700;2023-04-21T02:37:19;20.17;;;18.07;;
8993;SDS011;4532;50.886;4.700;2023-04-21T02:39:46;21.70;;;19.47;;
8993;SDS011;4532;50.886;4.700;2023-04-21T02:42:16;21.67;;;19.37;;
8993;SDS011;4532;50.886;4.700;2023-04-21T02:44:43;22.50;;;20.10;;
8993;SDS011;4532;50.886;4.700;2023-04-21T02:47:10;21.63;;;19.33;;
8993;SDS011;4532;50.886;4.700;2023-04-21T02:49:41;21.03;;;18.93;;
8993;SDS011;4532;50.886;4.700;2023-04-21T02:52:08;22.23;;;19.90;;
8993;SDS011;4532;50.886;4.700;2023-04-21T02:54:37;24.43;;;19.53;;
8993;SDS011;4532;50.886;4.700;2023-04-21T02:57:07;23.47;;;20.47;;
8993;SDS011;4532;50.886;4.700;2023-04-21T02:59:39;24.17;;;20.53;;
8993;SDS011;4532;50.886;4.700;2023-04-21T03:02:09;24.43;;;20.77;;
8993;SDS011;4532;50.886;4.700;2023-04-21T03:04:38;22.00;;;19.40;;
8993;SDS011;4532;50.886;4.700;2023-04-21T03:07:11;21.57;;;19.27;;
8993;SDS011;4532;50.886;4.700;2023-04-21T03:09:39;22.50;;;20.03;;
8993;SDS011;4532;50.886;4.700;2023-04-21T03:12:06;23.87;;;20.50;;
8993;SDS011;4532;50.886;4.700;2023-04-21T03:14:35;24.13;;;20.30;;
8993;SDS011;4532;50.886;4.700;2023-04-21T03:17:03;23.90;;;21.40;;
8993;SDS011;4532;50.886;4.700;2023-04-21T03:19:33;22.77;;;20.30;;
8993;SDS011;4532;50.886;4.700;2023-04-21T03:22:02;21.90;;;19.20;;
8993;SDS011;4532;50.886;4.700;2023-04-21T03:24:32;24.60;;;21.90;;
8993;SDS011;4532;50.886;4.700;2023-04-21T03:27:00;24.60;;;22.00;;
8993;SDS011;4532;50.886;4.700;2023-04-21T03:29:28;25.10;;;22.20;;
8993;SDS011;4532;50.886;4.700;2023-04-21T03:31:58;23.17;;;20.77;;
8993;SDS011;4532;50.886;4.700;2023-04-21T03:34:27;23.67;;;21.10;;
8993;SDS011;4532;50.886;4.700;2023-04-21T03:36:54;24.07;;;21.33;;
8993;SDS011;4532;50.886;4.700;2023-04-21T03:39:26;25.13;;;22.43;;
8993;SDS011;4532;50.886;4.700;2023-04-21T03:41:57;23.80;;;21.20;;
8993;SDS011;4532;50.886;4.700;2023-04-21T03:44:24;23.27;;;20.77;;
8993;SDS011;4532;50.886;4.700;2023-04-21T03:46:53;23.43;;;20.87;;
8993;SDS011;4532;50.886;4.700;2023-04-21T03:49:20;25.03;;;21.20;;
8993;SDS011;4532;50.886;4.700;2023-04-21T03:51:48;23.43;;;20.43;;
8993;SDS011;4532;50.886;4.700;2023-04-21T03:54:20;24.50;;;21.67;;
8993;SDS011;4532;50.886;4.700;2023-04-21T03:56:47;22.57;;;20.17;;
8993;SDS011;4532;50.886;4.700;2023-04-21T03:59:16;23.13;;;20.17;;
8993;SDS011;4532;50.886;4.700;2023-04-21T04:01:44;23.33;;;20.40;;
8993;SDS011;4532;50.886;4.700;2023-04-21T04:04:11;22.50;;;20.10;;
8993;SDS011;4532;50.886;4.700;2023-04-21T04:06:44;23.33;;;20.90;;
8993;SDS011;4532;50.886;4.700;2023-04-21T04:09:15;22.20;;;19.83;;
8993;SDS011;4532;50.886;4.700;2023-04-21T04:11:45;24.30;;;21.70;;
8993;SDS011;4532;50.886;4.700;2023-04-21T04:14:16;26.33;;;21.20;;
8993;SDS011;4532;50.886;4.700;2023-04-21T04:16:46;25.43;;;22.10;;
8993;SDS011;4532;50.886;4.700;2023-04-21T04:19:13;23.97;;;21.47;;
8993;SDS011;4532;50.886;4.700;2023-04-21T04:21:44;23.50;;;21.00;;
8993;SDS011;4532;50.886;4.700;2023-04-21T04:24:14;22.50;;;20.10;;
8993;SDS011;4532;50.886;4.700;2023-04-21T04:26:44;23.20;;;20.70;;
8993;SDS011;4532;50.886;4.700;2023-04-21T04:29:12;23.47;;;20.27;;
8993;SDS011;4532;50.886;4.700;2023-04-21T04:31:42;23.10;;;20.60;;
8993;SDS011;4532;50.886;4.700;2023-04-21T04:34:10;23.60;;;20.47;;
8993;SDS011;4532;50.886;4.700;2023-04-21T04:36:39;24.37;;;21.67;;
8993;SDS011;4532;50.886;4.700;2023-04-21T04:39:07;26.37;;;21.70;;
8993;SDS011;4532;50.886;4.700;2023-04-21T04:41:38;25.40;;;21.03;;
8993;SDS011;4532;50.886;4.700;2023-04-21T04:44:06;23.97;;;21.13;;
8993;SDS011;4532;50.886;4.700;2023-04-21T04:46:34;23.60;;;21.17;;
8993;SDS011;4532;50.886;4.700;2023-04-21T04:49:01;24.13;;;21.53;;
8993;SDS011;4532;50.886;4.700;2023-04-21T04:51:32;25.27;;;21.13;;
8993;SDS011;4532;50.886;4.700;2023-04-21T04:54:00;25.80;;;22.07;;
8993;SDS011;4532;50.886;4.700;2023-04-21T04:56:31;25.43;;;21.83;;
8993;SDS011;4532;50.886;4.700;2023-04-21T04:58:59;23.80;;;21.07;;
8993;SDS011;4532;50.886;4.700;2023-04-21T05:01:33;22.53;;;20.03;;
8993;SDS011;4532;50.886;4.700;2023-04-21T05:04:03;22.50;;;20.10;;
8993;SDS011;4532;50.886;4.700;2023-04-21T05:06:33;23.83;;;20.30;;
8993;SDS011;4532;50.886;4.700;2023-04-21T05:09:00;24.13;;;20.27;;
8993;SDS011;4532;50.886;4.700;2023-04-21T05:11:32;26.37;;;20.47;;
8993;SDS011;4532;50.886;4.700;2023-04-21T05:14:03;25.70;;;20.60;;
8993;SDS011;4532;50.886;4.700;2023-04-21T05:16:30;26.50;;;21.53;;
8993;SDS011;4532;50.886;4.700;2023-04-21T05:19:00;24.90;;;20.40;;
8993;SDS011;4532;50.886;4.700;2023-04-21T05:21:30;23.10;;;20.60;;
8993;SDS011;4532;50.886;4.700;2023-04-21T05:23:57;25.23;;;20.03;;
8993;SDS011;4532;50.886;4.700;2023-04-21T05:26:25;25.80;;;20.83;;
8993;SDS011;4532;50.886;4.700;2023-04-21T05:28:53;31.50;;;21.63;;
8993;SDS011;4532;50.886;4.700;2023-04-21T05:31:24;28.23;;;20.83;;
8993;SDS011;4532;50.886;4.700;2023-04-21T05:33:53;26.13;;;20.27;;
8993;SDS011;4532;50.886;4.700;2023-04-21T05:36:26;24.53;;;19.63;;
8993;SDS011;4532;50.886;4.700;2023-04-21T05:38:53;23.50;;;20.70;;
8993;SDS011;4532;50.886;4.700;2023-04-21T05:41:25;22.80;;;19.73;;
8993;SDS011;4532;50.886;4.700;2023-04-21T05:43:52;22.80;;;20.13;;
8993;SDS011;4532;50.886;4.700;2023-04-21T05:46:22;25.73;;;18.90;;
8993;SDS011;4532;50.886;4.700;2023-04-21T05:48:51;23.43;;;18.90;;
8993;SDS011;4532;50.886;4.700;2023-04-21T05:51:19;21.80;;;18.20;;
8993;SDS011;4532;50.886;4.700;2023-04-21T05:53:50;22.13;;;18.73;;
8993;SDS011;4532;50.886;4.700;2023-04-21T05:56:17;22.40;;;18.80;;
8993;SDS011;4532;50.886;4.700;2023-04-21T05:58:47;20.87;;;18.53;;
8993;SDS011;4532;50.886;4.700;2023-04-21T06:01:20;24.77;;;18.67;;
8993;SDS011;4532;50.886;4.700;2023-04-21T06:03:49;27.70;;;18.47;;
8993;SDS011;4532;50.886;4.700;2023-04-21T06:06:17;25.33;;;19.23;;
8993;SDS011;4532;50.886;4.700;2023-04-21T06:08:44;25.53;;;19.53;;
8993;SDS011;4532;50.886;4.700;2023-04-21T06:11:11;26.70;;;19.87;;
8993;SDS011;4532;50.886;4.700;2023-04-21T06:13:38;22.70;;;18.03;;
8993;SDS011;4532;50.886;4.700;2023-04-21T06:16:11;20.27;;;18.07;;
8993;SDS011;4532;50.886;4.700;2023-04-21T06:18:38;21.17;;;18.37;;
8993;SDS011;4532;50.886;4.700;2023-04-21T06:21:08;23.27;;;18.40;;
8993;SDS011;4532;50.886;4.700;2023-04-21T06:23:38;23.10;;;19.43;;
8993;SDS011;4532;50.886;4.700;2023-04-21T06:26:08;22.57;;;19.20;;
8993;SDS011;4532;50.886;4.700;2023-04-21T06:28:35;21.13;;;18.37;;
8993;SDS011;4532;50.886;4.700;2023-04-21T06:31:05;21.37;;;18.67;;
8993;SDS011;4532;50.886;4.700;2023-04-21T06:33:36;20.83;;;17.97;;
8993;SDS011;4532;50.886;4.700;2023-04-21T06:36:09;19.47;;;17.37;;
8993;SDS011;4532;50.886;4.700;2023-04-21T06:38:45;20.40;;;17.87;;
8993;SDS011;4532;50.886;4.700;2023-04-21T06:41:18;19.50;;;17.07;;
8993;SDS011;4532;50.886;4.700;2023-04-21T06:43:55;19.83;;;17.43;;
8993;SDS011;4532;50.886;4.700;2023-04-21T06:46:25;20.37;;;17.53;;
8993;SDS011;4532;50.886;4.700;2023-04-21T06:48:52;19.20;;;16.30;;
8993;SDS011;4532;50.886;4.700;2023-04-21T06:51:22;19.93;;;17.07;;
8993;SDS011;4532;50.886;4.700;2023-04-21T06:53:49;19.67;;;16.13;;
8993;SDS011;4532;50.886;4.700;2023-04-21T06:56:21;19.50;;;16.33;;
8993;SDS011;4532;50.886;4.700;2023-04-21T06:58:48;19.27;;;16.70;;
8993;SDS011;4532;50.886;4.700;2023-04-21T07:01:18;19.67;;;16.10;;
8993;SDS011;4532;50.886;4.700;2023-04-21T07:03:47;17.47;;;15.67;;
8993;SDS011;4532;50.886;4.700;2023-04-21T07:06:15;18.70;;;15.60;;
8993;SDS011;4532;50.886;4.700;2023-04-21T07:08:42;16.97;;;14.77;;
8993;SDS011;4532;50.886;4.700;2023-04-21T07:11:17;16.30;;;14.43;;
8993;SDS011;4532;50.886;4.700;2023-04-21T07:13:46;16.77;;;14.57;;
8993;SDS011;4532;50.886;4.700;2023-04-21T07:16:13;16.27;;;14.53;;
8993;SDS011;4532;50.886;4.700;2023-04-21T07:18:41;16.20;;;14.50;;
8993;SDS011;4532;50.886;4.700;2023-04-21T07:21:10;15.70;;;13.47;;
8993;SDS011;4532;50.886;4.700;2023-04-21T07:23:42;16.23;;;13.60;;
8993;SDS011;4532;50.886;4.700;2023-04-21T07:26:16;14.83;;;12.97;;
8993;SDS011;4532;50.886;4.700;2023-04-21T07:28:43;13.97;;;12.43;;
8993;SDS011;4532;50.886;4.700;2023-04-21T07:31:13;15.87;;;12.67;;
8993;SDS011;4532;50.886;4.700;2023-04-21T07:33:45;13.40;;;11.70;;
8993;SDS011;4532;50.886;4.700;2023-04-21T07:36:15;14.80;;;12.83;;
8993;SDS011;4532;50.886;4.700;2023-04-21T07:38:42;14.60;;;11.80;;
8993;SDS011;4532;50.886;4.700;2023-04-21T07:41:12;14.43;;;12.00;;
8993;SDS011;4532;50.886;4.700;2023-04-21T07:43:39;13.43;;;12.03;;
8993;SDS011;4532;50.886;4.700;2023-04-21T07:46:10;13.80;;;12.40;;
8993;SDS011;4532;50.886;4.700;2023-04-21T07:48:39;15.50;;;13.23;;
8993;SDS011;4532;50.886;4.700;2023-04-21T07:51:09;13.77;;;12.37;;
8993;SDS011;4532;50.886;4.700;2023-04-21T07:53:36;13.63;;;12.23;;
8993;SDS011;4532;50.886;4.700;2023-04-21T07:56:06;14.53;;;12.67;;
8993;SDS011;4532;50.886;4.700;2023-04-21T07:58:33;14.77;;;13.20;;
8993;SDS011;4532;50.886;4.700;2023-04-21T08:01:02;14.17;;;12.67;;
8993;SDS011;4532;50.886;4.700;2023-04-21T08:03:29;14.27;;;12.50;;
8993;SDS011;4532;50.886;4.700;2023-04-21T08:05:57;13.80;;;12.00;;
8993;SDS011;4532;50.886;4.700;2023-04-21T08:08:30;14.60;;;11.57;;
8993;SDS011;4532;50.886;4.700;2023-04-21T08:11:00;12.73;;;11.43;;
8993;SDS011;4532;50.886;4.700;2023-04-21T08:13:30;13.70;;;11.90;;
8993;SDS011;4532;50.886;4.700;2023-04-21T08:15:57;12.97;;;11.57;;
8993;SDS011;4532;50.886;4.700;2023-04-21T08:18:24;13.17;;;11.33;;
8993;SDS011;4532;50.886;4.700;2023-04-21T08:20:52;13.00;;;11.13;;
8993;SDS011;4532;50.886;4.700;2023-04-21T08:23:21;12.53;;;11.23;;
8993;SDS011;4532;50.886;4.700;2023-04-21T08:25:53;13.00;;;11.63;;
8993;SDS011;4532;50.886;4.700;2023-04-21T08:28:20;13.30;;;11.90;;
8993;SDS011;4532;50.886;4.700;2023-04-21T08:30:53;13.73;;;11.80;;
8993;SDS011;4532;50.886;4.700;2023-04-21T08:33:26;12.47;;;11.17;;
8993;SDS011;4532;50.886;4.700;2023-04-21T08:35:55;13.13;;;11.73;;
8993;SDS011;4532;50.886;4.700;2023-04-21T08:38:37;12.37;;;11.07;;
8993;SDS011;4532;50.886;4.700;2023-04-21T08:41:06;12.93;;;11.60;;
8993;SDS011;4532;50.886;4.700;2023-04-21T08:43:34;13.37;;;11.67;;
8993;SDS011;4532;50.886;4.700;2023-04-21T08:46:05;12.27;;;10.90;;
8993;SDS011;4532;50.886;4.700;2023-04-21T08:48:36;14.07;;;11.93;;
8993;SDS011;4532;50.886;4.700;2023-04-21T08:51:08;12.03;;;10.83;;
8993;SDS011;4532;50.886;4.700;2023-04-21T08:53:37;13.47;;;12.07;;
8993;SDS011;4532;50.886;4.700;2023-04-21T08:56:10;12.53;;;10.33;;
8993;SDS011;4532;50.886;4.700;2023-04-21T08:58:39;12.30;;;10.77;;
8993;SDS011;4532;50.886;4.700;2023-04-21T09:01:08;12.83;;;10.80;;
8993;SDS011;4532;50.886;4.700;2023-04-21T09:03:36;12.07;;;10.77;;
8993;SDS011;4532;50.886;4.700;2023-04-21T09:06:05;11.17;;;9.70;;
8993;SDS011;4532;50.886;4.700;2023-04-21T09:08:36;12.40;;;10.93;;
8993;SDS011;4532;50.886;4.700;2023-04-21T09:11:13;10.50;;;9.40;;
8993;SDS011;4532;50.886;4.700;2023-04-21T09:13:42;11.47;;;10.20;;
8993;SDS011;4532;50.886;4.700;2023-04-21T09:16:17;10.80;;;9.63;;
8993;SDS011;4532;50.886;4.700;2023-04-21T09:18:47;10.77;;;9.67;;
8993;SDS011;4532;50.886;4.700;2023-04-21T09:21:21;12.27;;;10.97;;
8993;SDS011;4532;50.886;4.700;2023-04-21T09:24:00;17.03;;;11.87;;
8993;SDS011;4532;50.886;4.700;2023-04-21T09:26:34;12.40;;;10.53;;
8993;SDS011;4532;50.886;4.700;2023-04-21T09:29:04;11.20;;;10.10;;
8993;SDS011;4532;50.886;4.700;2023-04-21T09:31:34;13.40;;;11.17;;
8993;SDS011;4532;50.886;4.700;2023-04-21T09:34:02;17.17;;;11.80;;
8993;SDS011;4532;50.886;4.700;2023-04-21T09:36:47;14.10;;;10.97;;
8993;SDS011;4532;50.886;4.700;2023-04-21T09:39:14;10.63;;;9.53;;
8993;SDS011;4532;50.886;4.700;2023-04-21T09:41:49;10.73;;;9.73;;
8993;SDS011;4532;50.886;4.700;2023-04-21T09:44:16;12.03;;;10.00;;
8993;SDS011;4532;50.886;4.700;2023-04-21T09:46:47;11.53;;;9.83;;
8993;SDS011;4532;50.886;4.700;2023-04-21T09:49:21;11.10;;;9.47;;
8993;SDS011;4532;50.886;4.700;2023-04-21T09:51:49;12.43;;;11.10;;
8993;SDS011;4532;50.886;4.700;2023-04-21T09:54:20;12.23;;;10.93;;
8993;SDS011;4532;50.886;4.700;2023-04-21T09:57:00;10.53;;;9.33;;
8993;SDS011;4532;50.886;4.700;2023-04-21T09:59:33;11.60;;;9.73;;
8993;SDS011;4532;50.886;4.700;2023-04-21T10:02:05;11.67;;;10.47;;
8993;SDS011;4532;50.886;4.700;2023-04-21T10:04:35;13.97;;;11.20;;
8993;SDS011;4532;50.886;4.700;2023-04-21T10:07:09;13.13;;;11.73;;
8993;SDS011;4532;50.886;4.700;2023-04-21T10:09:48;12.23;;;10.97;;
8993;SDS011;4532;50.886;4.700;2023-04-21T10:12:20;11.17;;;9.97;;
8993;SDS011;4532;50.886;4.700;2023-04-21T10:14:51;11.17;;;9.30;;
8993;SDS011;4532;50.886;4.700;2023-04-21T10:17:23;11.90;;;10.70;;
8993;SDS011;4532;50.886;4.700;2023-04-21T10:19:55;12.23;;;10.50;;
8993;SDS011;4532;50.886;4.700;2023-04-21T10:22:30;13.03;;;11.47;;
8993;SDS011;4532;50.886;4.700;2023-04-21T10:25:00;12.83;;;10.77;;
8993;SDS011;4532;50.886;4.700;2023-04-21T10:27:33;13.00;;;11.10;;
8993;SDS011;4532;50.886;4.700;2023-04-21T10:32:44;12.33;;;11.07;;
8993;SDS011;4532;50.886;4.700;2023-04-21T10:35:23;12.10;;;10.33;;
8993;SDS011;4532;50.886;4.700;2023-04-21T10:37:53;11.80;;;10.57;;
8993;SDS011;4532;50.886;4.700;2023-04-21T10:43:57;10.40;;;9.10;;
8993;SDS011;4532;50.886;4.700;2023-04-21T10:46:31;11.87;;;8.77;;
8993;SDS011;4532;50.886;4.700;2023-04-21T10:57:34;14.13;;;12.60;;
8993;SDS011;4532;50.886;4.700;2023-04-21T11:00:05;16.03;;;13.30;;
8993;SDS011;4532;50.886;4.700;2023-04-21T11:02:40;14.20;;;11.50;;
8993;SDS011;4532;50.886;4.700;2023-04-21T11:05:11;16.67;;;13.20;;
8993;SDS011;4532;50.886;4.700;2023-04-21T11:07:41;13.38;;;11.45;;
8993;SDS011;4532;50.886;4.700;2023-04-21T11:10:11;14.53;;;9.97;;
8993;SDS011;4532;50.886;4.700;2023-04-21T11:12:41;14.60;;;10.38;;
8993;SDS011;4532;50.886;4.700;2023-04-21T11:15:12;11.57;;;9.33;;
8993;SDS011;4532;50.886;4.700;2023-04-21T11:17:43;11.43;;;9.20;;
8993;SDS011;4532;50.886;4.700;2023-04-21T11:20:12;10.43;;;9.17;;
8993;SDS011;4532;50.886;4.700;2023-04-21T11:22:42;11.70;;;10.50;;
8993;SDS011;4532;50.886;4.700;2023-04-21T11:25:15;12.27;;;10.45;;
8993;SDS011;4532;50.886;4.700;2023-04-21T11:27:52;13.52;;;11.30;;
8993;SDS011;4532;50.886;4.700;2023-04-21T11:30:21;14.65;;;11.70;;
8993;SDS011;4532;50.886;4.700;2023-04-21T11:33:00;12.45;;;10.63;;
8993;SDS011;4532;50.886;4.700;2023-04-21T11:35:30;11.52;;;10.32;;
8993;SDS011;4532;50.886;4.700;2023-04-21T11:38:04;10.70;;;9.60;;
8993;SDS011;4532;50.886;4.700;2023-04-21T11:40:45;12.15;;;9.50;;
8993;SDS011;4532;50.886;4.700;2023-04-21T11:43:16;11.73;;;9.63;;
8993;SDS011;4532;50.886;4.700;2023-04-21T11:45:49;12.75;;;10.55;;
8993;SDS011;4532;50.886;4.700;2023-04-21T11:48:21;13.20;;;11.73;;
8993;SDS011;4532;50.886;4.700;2023-04-21T11:50:48;11.38;;;9.75;;
8993;SDS011;4532;50.886;4.700;2023-04-21T11:53:16;15.73;;;11.52;;
8993;SDS011;4532;50.886;4.700;2023-04-21T11:55:45;13.90;;;10.48;;
8993;SDS011;4532;50.886;4.700;2023-04-21T11:58:13;11.98;;;9.13;;
8993;SDS011;4532;50.886;4.700;2023-04-21T12:00:43;10.85;;;9.55;;
8993;SDS011;4532;50.886;4.700;2023-04-21T12:03:12;11.20;;;9.05;;
8993;SDS011;4532;50.886;4.700;2023-04-21T12:05:42;10.35;;;8.52;;
8993;SDS011;4532;50.886;4.700;2023-04-21T12:08:12;12.45;;;8.40;;
8993;SDS011;4532;50.886;4.700;2023-04-21T12:10:44;10.98;;;8.27;;
8993;SDS011;4532;50.886;4.700;2023-04-21T12:13:12;10.27;;;9.18;;
8993;SDS011;4532;50.886;4.700;2023-04-21T12:15:50;10.60;;;9.10;;
8993;SDS011;4532;50.886;4.700;2023-04-21T12:18:19;15.13;;;11.55;;
8993;SDS011;4532;50.886;4.700;2023-04-21T12:20:50;13.88;;;10.05;;
8993;SDS011;4532;50.886;4.700;2023-04-21T12:23:18;13.43;;;9.57;;
8993;SDS011;4532;50.886;4.700;2023-04-21T12:25:47;14.68;;;9.13;;
8993;SDS011;4532;50.886;4.700;2023-04-21T12:28:15;12.55;;;9.45;;
8993;SDS011;4532;50.886;4.700;2023-04-21T12:30:45;10.38;;;8.60;;
8993;SDS011;4532;50.886;4.700;2023-04-21T12:33:18;10.77;;;8.45;;
8993;SDS011;4532;50.886;4.700;2023-04-21T12:35:49;8.95;;;7.85;;
8993;SDS011;4532;50.886;4.700;2023-04-21T12:38:17;10.35;;;7.72;;
8993;SDS011;4532;50.886;4.700;2023-04-21T12:40:44;11.88;;;8.45;;
8993;SDS011;4532;50.886;4.700;2023-04-21T12:43:11;11.73;;;8.60;;
8993;SDS011;4532;50.886;4.700;2023-04-21T12:45:41;10.32;;;8.23;;
8993;SDS011;4532;50.886;4.700;2023-04-21T12:48:08;14.25;;;8.75;;
8993;SDS011;4532;50.886;4.700;2023-04-21T12:50:35;8.77;;;7.88;;
8993;SDS011;4532;50.886;4.700;2023-04-21T12:53:02;8.60;;;7.75;;
8993;SDS011;4532;50.886;4.700;2023-04-21T12:55:30;10.07;;;7.82;;
8993;SDS011;4532;50.886;4.700;2023-04-21T12:57:57;7.97;;;7.15;;
8993;SDS011;4532;50.886;4.700;2023-04-21T13:00:27;9.93;;;7.97;;
8993;SDS011;4532;50.886;4.700;2023-04-21T13:02:54;9.43;;;7.68;;
8993;SDS011;4532;50.886;4.700;2023-04-21T13:05:26;11.32;;;6.95;;
8993;SDS011;4532;50.886;4.700;2023-04-21T13:07:56;7.90;;;6.68;;
8993;SDS011;4532;50.886;4.700;2023-04-21T13:10:24;6.90;;;6.05;;
8993;SDS011;4532;50.886;4.700;2023-04-21T13:12:53;7.45;;;5.45;;
8993;SDS011;4532;50.886;4.700;2023-04-21T13:15:20;10.35;;;6.10;;
8993;SDS011;4532;50.886;4.700;2023-04-21T13:17:50;9.27;;;6.90;;
8993;SDS011;4532;50.886;4.700;2023-04-21T13:20:17;7.68;;;6.38;;
8993;SDS011;4532;50.886;4.700;2023-04-21T13:22:46;8.23;;;6.30;;
8993;SDS011;4532;50.886;4.700;2023-04-21T13:25:15;10.73;;;5.85;;
8993;SDS011;4532;50.886;4.700;2023-04-21T13:27:42;6.95;;;5.38;;
8993;SDS011;4532;50.886;4.700;2023-04-21T13:30:13;5.88;;;4.95;;
8993;SDS011;4532;50.886;4.700;2023-04-21T13:32:41;8.30;;;6.82;;
8993;SDS011;4532;50.886;4.700;2023-04-21T13:35:09;8.05;;;5.78;;
8993;SDS011;4532;50.886;4.700;2023-04-21T13:37:36;6.75;;;5.68;;
8993;SDS011;4532;50.886;4.700;2023-04-21T13:40:05;5.88;;;5.28;;
8993;SDS011;4532;50.886;4.700;2023-04-21T13:42:37;5.95;;;5.35;;
8993;SDS011;4532;50.886;4.700;2023-04-21T13:45:09;6.88;;;6.18;;
8993;SDS011;4532;50.886;4.700;2023-04-21T13:47:42;8.77;;;5.43;;
8993;SDS011;4532;50.886;4.700;2023-04-21T13:50:11;7.57;;;5.20;;
8993;SDS011;4532;50.886;4.700;2023-04-21T13:52:39;6.93;;;5.40;;
8993;SDS011;4532;50.886;4.700;2023-04-21T13:55:08;7.13;;;5.53;;
8993;SDS011;4532;50.886;4.700;2023-04-21T13:57:38;5.88;;;5.28;;
8993;SDS011;4532;50.886;4.700;2023-04-21T14:00:08;5.93;;;5.32;;
8993;SDS011;4532;50.886;4.700;2023-04-21T14:02:37;5.00;;;4.32;;
8993;SDS011;4532;50.886;4.700;2023-04-21T14:05:07;5.45;;;4.88;;
8993;SDS011;4532;50.886;4.700;2023-04-21T14:07:40;7.03;;;4.75;;
8993;SDS011;4532;50.886;4.700;2023-04-21T14:10:09;8.13;;;5.00;;
8993;SDS011;4532;50.886;4.700;2023-04-21T14:12:41;7.95;;;5.50;;
8993;SDS011;4532;50.886;4.700;2023-04-21T14:15:11;7.13;;;4.70;;
8993;SDS011;4532;50.886;4.700;2023-04-21T14:17:38;6.15;;;4.68;;
8993;SDS011;4532;50.886;4.700;2023-04-21T14:20:08;5.35;;;4.85;;
8993;SDS011;4532;50.886;4.700;2023-04-21T14:22:36;4.85;;;4.30;;
8993;SDS011;4532;50.886;4.700;2023-04-21T14:25:06;5.13;;;4.40;;
8993;SDS011;4532;50.886;4.700;2023-04-21T14:27:36;5.05;;;4.50;;
8993;SDS011;4532;50.886;4.700;2023-04-21T14:30:06;5.85;;;4.82;;
8993;SDS011;4532;50.886;4.700;2023-04-21T14:32:36;5.15;;;4.38;;
8993;SDS011;4532;50.886;4.700;2023-04-21T14:35:11;6.00;;;4.63;;
8993;SDS011;4532;50.886;4.700;2023-04-21T14:37:41;5.30;;;4.55;;
8993;SDS011;4532;50.886;4.700;2023-04-21T14:40:13;6.00;;;4.88;;
8993;SDS011;4532;50.886;4.700;2023-04-21T14:42:40;5.50;;;4.88;;
8993;SDS011;4532;50.886;4.700;2023-04-21T14:45:08;5.90;;;4.85;;
8993;SDS011;4532;50.886;4.700;2023-04-21T14:47:38;6.03;;;5.28;;
8993;SDS011;4532;50.886;4.700;2023-04-21T14:50:05;5.22;;;4.72;;
8993;SDS011;4532;50.886;4.700;2023-04-21T14:52:33;5.00;;;4.30;;
8993;SDS011;4532;50.886;4.700;2023-04-21T14:55:03;5.28;;;4.78;;
8993;SDS011;4532;50.886;4.700;2023-04-21T14:57:35;6.63;;;4.55;;
8993;SDS011;4532;50.886;4.700;2023-04-21T15:00:05;6.35;;;4.90;;
8993;SDS011;4532;50.886;4.700;2023-04-21T15:02:33;5.55;;;5.03;;
8993;SDS011;4532;50.886;4.700;2023-04-21T15:05:00;5.47;;;4.97;;
8993;SDS011;4532;50.886;4.700;2023-04-21T15:07:29;5.53;;;5.03;;
8993;SDS011;4532;50.886;4.700;2023-04-21T15:09:58;6.47;;;5.20;;
8993;SDS011;4532;50.886;4.700;2023-04-21T15:12:30;5.05;;;4.65;;
8993;SDS011;4532;50.886;4.700;2023-04-21T15:15:04;6.18;;;5.57;;
8993;SDS011;4532;50.886;4.700;2023-04-21T15:17:32;7.00;;;5.80;;
8993;SDS011;4532;50.886;4.700;2023-04-21T15:20:04;7.10;;;5.22;;
8993;SDS011;4532;50.886;4.700;2023-04-21T15:22:35;5.30;;;4.80;;
8993;SDS011;4532;50.886;4.700;2023-04-21T15:25:04;5.22;;;4.72;;
8993;SDS011;4532;50.886;4.700;2023-04-21T15:27:40;4.88;;;4.38;;